sensor_id;sensor_type;location;lat;lon;timestamp;P1;durP1;ratioP1;P2;durP2;ratioP2
1625;SDS011;806;48.770;9.156;2023-09-12T00:01:06;2.92;;;1.40;;
1625;SDS011;806;48.770;9.156;2023-09-12T00:03:34;4.15;;;2.20;;
1625;SDS011;806;48.770;9.156;2023-09-12T00:06:01;5.10;;;1.67;;
1625;SDS011;806;48.770;9.156;2023-09-12T00:08:29;3.50;;;1.80;;
1625;SDS011;806;48.770;9.156;2023-09-12T00:11:00;4.90;;;1.90;;
1625;SDS011;806;48.770;9.156;2023-09-12T00:13:28;2.28;;;1.60;;
1625;SDS011;806;48.770;9.156;2023-09-12T00:15:57;3.00;;;2.08;;
1625;SDS011;806;48.770;9.156;2023-09-12T00:18:24;2.30;;;1.90;;
1625;SDS011;806;48.770;9.156;2023-09-12T00:20:51;2.50;;;1.60;;
1625;SDS011;806;48.770;9.156;2023-09-12T00:23:20;4.05;;;1.77;;
1625;SDS011;806;48.770;9.156;2023-09-12T00:25:48;3.53;;;1.60;;
1625;SDS011;806;48.770;9.156;2023-09-12T00:28:16;2.72;;;2.38;;
1625;SDS011;806;48.770;9.156;2023-09-12T00:30:43;3.72;;;2.00;;
1625;SDS011;806;48.770;9.156;2023-09-12T00:33:12;3.90;;;2.10;;
1625;SDS011;806;48.770;9.156;2023-09-12T00:35:39;2.63;;;1.60;;
1625;SDS011;806;48.770;9.156;2023-09-12T00:38:08;2.83;;;1.73;;
1625;SDS011;806;48.770;9.156;2023-09-12T00:40:35;3.90;;;1.90;;
1625;SDS011;806;48.770;9.156;2023-09-12T00:43:03;3.20;;;1.60;;
1625;SDS011;806;48.770;9.156;2023-09-12T00:45:30;2.30;;;1.60;;
1625;SDS011;806;48.770;9.156;2023-09-12T00:47:57;2.95;;;1.90;;
1625;SDS011;806;48.770;9.156;2023-09-12T00:50:27;3.05;;;2.13;;
1625;SDS011;806;48.770;9.156;2023-09-12T00:52:55;3.47;;;2.00;;
1625;SDS011;806;48.770;9.156;2023-09-12T00:55:23;3.45;;;2.13;;
1625;SDS011;806;48.770;9.156;2023-09-12T00:57:50;2.70;;;1.77;;
1625;SDS011;806;48.770;9.156;2023-09-12T01:00:19;4.90;;;2.15;;
1625;SDS011;806;48.770;9.156;2023-09-12T01:02:47;3.50;;;2.60;;
1625;SDS011;806;48.770;9.156;2023-09-12T01:05:16;3.10;;;2.00;;
1625;SDS011;806;48.770;9.156;2023-09-12T01:07:46;4.57;;;2.13;;
1625;SDS011;806;48.770;9.156;2023-09-12T01:10:13;3.20;;;2.10;;
1625;SDS011;806;48.770;9.156;2023-09-12T01:12:40;4.97;;;1.80;;
1625;SDS011;806;48.770;9.156;2023-09-12T01:15:08;2.85;;;2.00;;
1625;SDS011;806;48.770;9.156;2023-09-12T01:17:39;2.60;;;1.90;;
1625;SDS011;806;48.770;9.156;2023-09-12T01:20:07;2.50;;;2.28;;
1625;SDS011;806;48.770;9.156;2023-09-12T01:22:42;4.20;;;2.28;;
1625;SDS011;806;48.770;9.156;2023-09-12T01:25:45;2.80;;;2.30;;
1625;SDS011;806;48.770;9.156;2023-09-12T01:28:37;3.67;;;2.15;;
1625;SDS011;806;48.770;9.156;2023-09-12T01:31:08;3.88;;;1.75;;
1625;SDS011;806;48.770;9.156;2023-09-12T01:33:36;3.45;;;2.17;;
1625;SDS011;806;48.770;9.156;2023-09-12T01:36:04;4.68;;;1.85;;
1625;SDS011;806;48.770;9.156;2023-09-12T01:38:31;2.97;;;1.92;;
1625;SDS011;806;48.770;9.156;2023-09-12T01:40:58;3.42;;;1.80;;
1625;SDS011;806;48.770;9.156;2023-09-12T01:43:26;3.00;;;1.77;;
1625;SDS011;806;48.770;9.156;2023-09-12T01:45:55;3.65;;;2.30;;
1625;SDS011;806;48.770;9.156;2023-09-12T01:48:28;3.95;;;2.20;;
1625;SDS011;806;48.770;9.156;2023-09-12T01:51:00;2.20;;;1.70;;
1625;SDS011;806;48.770;9.156;2023-09-12T01:53:28;3.28;;;2.15;;
1625;SDS011;806;48.770;9.156;2023-09-12T01:55:56;2.90;;;1.80;;
1625;SDS011;806;48.770;9.156;2023-09-12T01:58:25;3.00;;;2.17;;
1625;SDS011;806;48.770;9.156;2023-09-12T02:00:52;4.95;;;2.13;;
1625;SDS011;806;48.770;9.156;2023-09-12T02:03:21;2.70;;;2.10;;
1625;SDS011;806;48.770;9.156;2023-09-12T02:05:48;3.70;;;2.40;;
1625;SDS011;806;48.770;9.156;2023-09-12T02:08:15;4.68;;;2.83;;
1625;SDS011;806;48.770;9.156;2023-09-12T02:10:42;3.97;;;1.90;;
1625;SDS011;806;48.770;9.156;2023-09-12T02:13:10;3.03;;;1.90;;
1625;SDS011;806;48.770;9.156;2023-09-12T02:15:37;4.20;;;1.70;;
1625;SDS011;806;48.770;9.156;2023-09-12T02:18:04;2.20;;;1.80;;
1625;SDS011;806;48.770;9.156;2023-09-12T02:20:33;3.10;;;1.90;;
1625;SDS011;806;48.770;9.156;2023-09-12T02:23:04;3.67;;;2.53;;
1625;SDS011;806;48.770;9.156;2023-09-12T02:25:31;2.60;;;1.90;;
1625;SDS011;806;48.770;9.156;2023-09-12T02:27:58;3.45;;;1.75;;
1625;SDS011;806;48.770;9.156;2023-09-12T02:30:25;4.78;;;1.90;;
1625;SDS011;806;48.770;9.156;2023-09-12T02:32:52;2.65;;;1.98;;
1625;SDS011;806;48.770;9.156;2023-09-12T02:35:19;3.60;;;2.13;;
1625;SDS011;806;48.770;9.156;2023-09-12T02:37:48;3.90;;;1.65;;
1625;SDS011;806;48.770;9.156;2023-09-12T02:40:15;3.38;;;2.00;;
1625;SDS011;806;48.770;9.156;2023-09-12T02:42:43;2.80;;;1.90;;
1625;SDS011;806;48.770;9.156;2023-09-12T02:45:10;2.65;;;1.70;;
1625;SDS011;806;48.770;9.156;2023-09-12T02:47:37;3.20;;;2.40;;
1625;SDS011;806;48.770;9.156;2023-09-12T02:50:05;2.33;;;2.10;;
1625;SDS011;806;48.770;9.156;2023-09-12T02:52:33;2.95;;;1.73;;
1625;SDS011;806;48.770;9.156;2023-09-12T02:55:01;3.13;;;1.90;;
1625;SDS011;806;48.770;9.156;2023-09-12T02:57:29;3.83;;;2.30;;
1625;SDS011;806;48.770;9.156;2023-09-12T02:59:56;4.65;;;1.83;;
1625;SDS011;806;48.770;9.156;2023-09-12T03:02:23;3.80;;;1.83;;
1625;SDS011;806;48.770;9.156;2023-09-12T03:04:50;3.35;;;2.13;;
1625;SDS011;806;48.770;9.156;2023-09-12T03:07:17;3.22;;;2.13;;
1625;SDS011;806;48.770;9.156;2023-09-12T03:09:47;4.10;;;2.40;;
1625;SDS011;806;48.770;9.156;2023-09-12T03:12:16;4.28;;;2.20;;
1625;SDS011;806;48.770;9.156;2023-09-12T03:14:43;3.13;;;2.00;;
1625;SDS011;806;48.770;9.156;2023-09-12T03:17:10;3.10;;;2.05;;
1625;SDS011;806;48.770;9.156;2023-09-12T03:19:37;2.83;;;2.53;;
1625;SDS011;806;48.770;9.156;2023-09-12T03:22:05;5.00;;;1.90;;
1625;SDS011;806;48.770;9.156;2023-09-12T03:24:32;4.82;;;2.53;;
1625;SDS011;806;48.770;9.156;2023-09-12T03:26:59;4.10;;;2.00;;
1625;SDS011;806;48.770;9.156;2023-09-12T03:29:27;6.43;;;2.60;;
1625;SDS011;806;48.770;9.156;2023-09-12T03:31:55;3.57;;;2.50;;
1625;SDS011;806;48.770;9.156;2023-09-12T03:34:22;3.03;;;1.90;;
1625;SDS011;806;48.770;9.156;2023-09-12T03:36:49;4.50;;;2.43;;
1625;SDS011;806;48.770;9.156;2023-09-12T03:39:16;4.63;;;2.97;;
1625;SDS011;806;48.770;9.156;2023-09-12T03:41:43;3.28;;;2.30;;
1625;SDS011;806;48.770;9.156;2023-09-12T03:44:11;3.90;;;2.88;;
1625;SDS011;806;48.770;9.156;2023-09-12T03:46:39;4.85;;;2.05;;
1625;SDS011;806;48.770;9.156;2023-09-12T03:49:06;5.38;;;1.92;;
1625;SDS011;806;48.770;9.156;2023-09-12T03:51:33;3.57;;;2.00;;
1625;SDS011;806;48.770;9.156;2023-09-12T03:54:03;5.28;;;2.58;;
1625;SDS011;806;48.770;9.156;2023-09-12T03:56:30;5.97;;;2.00;;
1625;SDS011;806;48.770;9.156;2023-09-12T03:58:57;4.93;;;2.10;;
1625;SDS011;806;48.770;9.156;2023-09-12T04:01:25;3.53;;;2.35;;
1625;SDS011;806;48.770;9.156;2023-09-12T04:03:53;4.45;;;2.25;;
1625;SDS011;806;48.770;9.156;2023-09-12T04:06:20;3.13;;;2.00;;
1625;SDS011;806;48.770;9.156;2023-09-12T04:08:48;4.03;;;1.55;;
1625;SDS011;806;48.770;9.156;2023-09-12T04:11:15;3.15;;;2.30;;
1625;SDS011;806;48.770;9.156;2023-09-12T04:13:42;3.58;;;2.40;;
1625;SDS011;806;48.770;9.156;2023-09-12T04:16:10;3.50;;;1.80;;
1625;SDS011;806;48.770;9.156;2023-09-12T04:18:38;2.80;;;2.10;;
1625;SDS011;806;48.770;9.156;2023-09-12T04:21:06;4.47;;;2.00;;
1625;SDS011;806;48.770;9.156;2023-09-12T04:23:34;3.08;;;2.10;;
1625;SDS011;806;48.770;9.156;2023-09-12T04:26:01;4.40;;;2.10;;
1625;SDS011;806;48.770;9.156;2023-09-12T04:28:28;3.92;;;1.75;;
1625;SDS011;806;48.770;9.156;2023-09-12T04:31:00;3.38;;;1.83;;
1625;SDS011;806;48.770;9.156;2023-09-12T04:33:28;5.88;;;2.20;;
1625;SDS011;806;48.770;9.156;2023-09-12T04:35:57;3.47;;;2.47;;
1625;SDS011;806;48.770;9.156;2023-09-12T04:38:29;3.92;;;2.10;;
1625;SDS011;806;48.770;9.156;2023-09-12T04:40:59;4.30;;;2.72;;
1625;SDS011;806;48.770;9.156;2023-09-12T04:43:30;3.70;;;2.60;;
1625;SDS011;806;48.770;9.156;2023-09-12T04:45:57;3.10;;;2.00;;
1625;SDS011;806;48.770;9.156;2023-09-12T04:48:24;3.85;;;1.98;;
1625;SDS011;806;48.770;9.156;2023-09-12T04:50:51;4.90;;;2.60;;
1625;SDS011;806;48.770;9.156;2023-09-12T04:53:18;4.20;;;2.30;;
1625;SDS011;806;48.770;9.156;2023-09-12T04:55:47;3.58;;;2.10;;
1625;SDS011;806;48.770;9.156;2023-09-12T04:58:14;4.63;;;2.08;;
1625;SDS011;806;48.770;9.156;2023-09-12T05:00:41;4.07;;;2.50;;
1625;SDS011;806;48.770;9.156;2023-09-12T05:03:08;3.00;;;2.33;;
1625;SDS011;806;48.770;9.156;2023-09-12T05:05:36;3.53;;;2.50;;
1625;SDS011;806;48.770;9.156;2023-09-12T05:08:03;4.13;;;2.47;;
1625;SDS011;806;48.770;9.156;2023-09-12T05:10:31;6.20;;;2.45;;
1625;SDS011;806;48.770;9.156;2023-09-12T05:12:59;3.17;;;2.53;;
1625;SDS011;806;48.770;9.156;2023-09-12T05:15:27;3.10;;;2.40;;
1625;SDS011;806;48.770;9.156;2023-09-12T05:17:54;6.20;;;2.95;;
1625;SDS011;806;48.770;9.156;2023-09-12T05:20:21;3.90;;;2.20;;
1625;SDS011;806;48.770;9.156;2023-09-12T05:22:48;3.90;;;1.90;;
1625;SDS011;806;48.770;9.156;2023-09-12T05:25:15;2.90;;;2.00;;
1625;SDS011;806;48.770;9.156;2023-09-12T05:27:43;4.35;;;2.10;;
1625;SDS011;806;48.770;9.156;2023-09-12T05:30:12;4.57;;;2.50;;
1625;SDS011;806;48.770;9.156;2023-09-12T05:32:40;3.45;;;2.40;;
1625;SDS011;806;48.770;9.156;2023-09-12T05:35:07;4.70;;;2.45;;
1625;SDS011;806;48.770;9.156;2023-09-12T05:37:35;4.43;;;2.47;;
1625;SDS011;806;48.770;9.156;2023-09-12T05:40:02;3.07;;;1.80;;
1625;SDS011;806;48.770;9.156;2023-09-12T05:42:31;4.80;;;2.90;;
1625;SDS011;806;48.770;9.156;2023-09-12T05:44:58;4.70;;;2.50;;
1625;SDS011;806;48.770;9.156;2023-09-12T05:47:27;2.83;;;2.03;;
1625;SDS011;806;48.770;9.156;2023-09-12T05:49:54;3.22;;;2.45;;
1625;SDS011;806;48.770;9.156;2023-09-12T05:52:24;4.25;;;2.92;;
1625;SDS011;806;48.770;9.156;2023-09-12T05:54:51;4.22;;;2.15;;
1625;SDS011;806;48.770;9.156;2023-09-12T05:57:18;4.43;;;2.92;;
1625;SDS011;806;48.770;9.156;2023-09-12T05:59:46;4.03;;;2.60;;
1625;SDS011;806;48.770;9.156;2023-09-12T06:02:13;4.28;;;2.45;;
1625;SDS011;806;48.770;9.156;2023-09-12T06:04:42;8.65;;;2.30;;
1625;SDS011;806;48.770;9.156;2023-09-12T06:07:09;4.70;;;1.85;;
1625;SDS011;806;48.770;9.156;2023-09-12T06:09:36;2.38;;;2.17;;
1625;SDS011;806;48.770;9.156;2023-09-12T06:12:04;3.28;;;1.90;;
1625;SDS011;806;48.770;9.156;2023-09-12T06:14:32;4.88;;;2.20;;
1625;SDS011;806;48.770;9.156;2023-09-12T06:16:59;3.08;;;2.45;;
1625;SDS011;806;48.770;9.156;2023-09-12T06:19:26;4.90;;;2.75;;
1625;SDS011;806;48.770;9.156;2023-09-12T06:21:55;3.83;;;1.80;;
1625;SDS011;806;48.770;9.156;2023-09-12T06:24:23;3.50;;;2.45;;
1625;SDS011;806;48.770;9.156;2023-09-12T06:26:50;3.13;;;2.10;;
1625;SDS011;806;48.770;9.156;2023-09-12T06:29:18;4.30;;;2.40;;
1625;SDS011;806;48.770;9.156;2023-09-12T06:31:45;2.60;;;2.17;;
1625;SDS011;806;48.770;9.156;2023-09-12T06:34:13;3.08;;;2.00;;
1625;SDS011;806;48.770;9.156;2023-09-12T06:36:40;2.60;;;2.30;;
1625;SDS011;806;48.770;9.156;2023-09-12T06:39:11;3.97;;;2.53;;
1625;SDS011;806;48.770;9.156;2023-09-12T06:41:38;5.00;;;2.40;;
1625;SDS011;806;48.770;9.156;2023-09-12T06:44:06;5.90;;;2.20;;
1625;SDS011;806;48.770;9.156;2023-09-12T06:46:33;4.50;;;2.47;;
1625;SDS011;806;48.770;9.156;2023-09-12T06:49:02;5.03;;;3.15;;
1625;SDS011;806;48.770;9.156;2023-09-12T06:51:30;4.60;;;2.60;;
1625;SDS011;806;48.770;9.156;2023-09-12T06:53:57;4.60;;;2.70;;
1625;SDS011;806;48.770;9.156;2023-09-12T06:56:26;4.32;;;2.67;;
1625;SDS011;806;48.770;9.156;2023-09-12T06:58:53;4.47;;;3.42;;
1625;SDS011;806;48.770;9.156;2023-09-12T07:01:21;7.40;;;3.38;;
1625;SDS011;806;48.770;9.156;2023-09-12T07:03:48;6.20;;;3.03;;
1625;SDS011;806;48.770;9.156;2023-09-12T07:06:19;5.93;;;3.22;;
1625;SDS011;806;48.770;9.156;2023-09-12T07:08:46;5.40;;;3.60;;
1625;SDS011;806;48.770;9.156;2023-09-12T07:11:13;5.88;;;2.92;;
1625;SDS011;806;48.770;9.156;2023-09-12T07:13:42;6.47;;;2.78;;
1625;SDS011;806;48.770;9.156;2023-09-12T07:16:09;5.53;;;3.00;;
1625;SDS011;806;48.770;9.156;2023-09-12T07:18:37;5.00;;;3.40;;
1625;SDS011;806;48.770;9.156;2023-09-12T07:21:05;5.15;;;3.40;;
1625;SDS011;806;48.770;9.156;2023-09-12T07:23:32;5.53;;;3.30;;
1625;SDS011;806;48.770;9.156;2023-09-12T07:25:59;3.60;;;2.50;;
1625;SDS011;806;48.770;9.156;2023-09-12T07:28:27;4.80;;;2.53;;
1625;SDS011;806;48.770;9.156;2023-09-12T07:30:58;4.00;;;2.63;;
1625;SDS011;806;48.770;9.156;2023-09-12T07:33:25;3.08;;;2.83;;
1625;SDS011;806;48.770;9.156;2023-09-12T07:35:53;5.27;;;3.27;;
1625;SDS011;806;48.770;9.156;2023-09-12T07:38:20;3.43;;;2.93;;
1625;SDS011;806;48.770;9.156;2023-09-12T07:40:47;8.52;;;4.22;;
1625;SDS011;806;48.770;9.156;2023-09-12T07:43:15;6.30;;;4.05;;
1625;SDS011;806;48.770;9.156;2023-09-12T07:45:42;8.93;;;4.30;;
1625;SDS011;806;48.770;9.156;2023-09-12T07:48:11;4.35;;;3.95;;
1625;SDS011;806;48.770;9.156;2023-09-12T07:50:38;4.38;;;2.83;;
1625;SDS011;806;48.770;9.156;2023-09-12T07:53:05;3.60;;;3.22;;
1625;SDS011;806;48.770;9.156;2023-09-12T07:55:36;4.87;;;3.00;;
1625;SDS011;806;48.770;9.156;2023-09-12T07:58:10;5.22;;;3.05;;
1625;SDS011;806;48.770;9.156;2023-09-12T08:00:38;5.23;;;2.90;;
1625;SDS011;806;48.770;9.156;2023-09-12T08:03:05;5.90;;;3.63;;
1625;SDS011;806;48.770;9.156;2023-09-12T08:05:34;3.97;;;2.90;;
1625;SDS011;806;48.770;9.156;2023-09-12T08:08:01;4.13;;;2.70;;
1625;SDS011;806;48.770;9.156;2023-09-12T08:10:29;6.07;;;3.08;;
1625;SDS011;806;48.770;9.156;2023-09-12T08:12:56;4.30;;;3.15;;
1625;SDS011;806;48.770;9.156;2023-09-12T08:15:23;3.30;;;2.80;;
1625;SDS011;806;48.770;9.156;2023-09-12T08:17:50;5.30;;;2.33;;
1625;SDS011;806;48.770;9.156;2023-09-12T08:20:20;5.10;;;2.25;;
1625;SDS011;806;48.770;9.156;2023-09-12T08:22:49;3.92;;;2.33;;
1625;SDS011;806;48.770;9.156;2023-09-12T08:25:16;3.50;;;2.70;;
1625;SDS011;806;48.770;9.156;2023-09-12T08:27:43;16.45;;;4.53;;
1625;SDS011;806;48.770;9.156;2023-09-12T08:30:11;4.40;;;2.75;;
1625;SDS011;806;48.770;9.156;2023-09-12T08:32:39;3.67;;;2.60;;
1625;SDS011;806;48.770;9.156;2023-09-12T08:35:09;3.20;;;2.90;;
1625;SDS011;806;48.770;9.156;2023-09-12T08:37:38;5.47;;;2.75;;
1625;SDS011;806;48.770;9.156;2023-09-12T08:40:08;5.10;;;2.70;;
1625;SDS011;806;48.770;9.156;2023-09-12T08:42:38;6.47;;;2.80;;
1625;SDS011;806;48.770;9.156;2023-09-12T08:45:08;4.82;;;3.35;;
1625;SDS011;806;48.770;9.156;2023-09-12T08:47:39;5.27;;;3.90;;
1625;SDS011;806;48.770;9.156;2023-09-12T08:50:08;4.55;;;2.22;;
1625;SDS011;806;48.770;9.156;2023-09-12T08:52:37;4.40;;;2.47;;
1625;SDS011;806;48.770;9.156;2023-09-12T08:55:05;4.82;;;3.17;;
1625;SDS011;806;48.770;9.156;2023-09-12T08:57:36;5.75;;;3.38;;
1625;SDS011;806;48.770;9.156;2023-09-12T09:00:05;4.70;;;3.30;;
1625;SDS011;806;48.770;9.156;2023-09-12T09:02:34;3.83;;;2.28;;
1625;SDS011;806;48.770;9.156;2023-09-12T09:05:02;3.65;;;2.55;;
1625;SDS011;806;48.770;9.156;2023-09-12T09:07:31;5.55;;;3.22;;
1625;SDS011;806;48.770;9.156;2023-09-12T09:10:00;4.25;;;2.97;;
1625;SDS011;806;48.770;9.156;2023-09-12T09:12:31;4.22;;;3.20;;
1625;SDS011;806;48.770;9.156;2023-09-12T09:14:59;5.15;;;3.53;;
1625;SDS011;806;48.770;9.156;2023-09-12T09:17:47;3.80;;;2.50;;
1625;SDS011;806;48.770;9.156;2023-09-12T09:20:22;4.75;;;3.80;;
1625;SDS011;806;48.770;9.156;2023-09-12T09:22:58;4.18;;;3.15;;
1625;SDS011;806;48.770;9.156;2023-09-12T09:25:26;4.72;;;3.10;;
1625;SDS011;806;48.770;9.156;2023-09-12T09:27:55;4.18;;;2.97;;
1625;SDS011;806;48.770;9.156;2023-09-12T09:30:38;4.32;;;2.60;;
1625;SDS011;806;48.770;9.156;2023-09-12T09:33:07;3.22;;;2.85;;
1625;SDS011;806;48.770;9.156;2023-09-12T09:35:34;3.50;;;2.72;;
1625;SDS011;806;48.770;9.156;2023-09-12T09:38:02;3.30;;;2.70;;
1625;SDS011;806;48.770;9.156;2023-09-12T09:40:32;4.00;;;2.60;;
1625;SDS011;806;48.770;9.156;2023-09-12T09:43:02;3.88;;;2.58;;
1625;SDS011;806;48.770;9.156;2023-09-12T09:45:30;4.13;;;2.97;;
1625;SDS011;806;48.770;9.156;2023-09-12T09:48:04;4.45;;;3.38;;
1625;SDS011;806;48.770;9.156;2023-09-12T09:50:33;5.10;;;2.65;;
1625;SDS011;806;48.770;9.156;2023-09-12T09:53:02;4.30;;;2.40;;
1625;SDS011;806;48.770;9.156;2023-09-12T09:55:33;3.77;;;3.30;;
1625;SDS011;806;48.770;9.156;2023-09-12T09:58:02;4.30;;;2.20;;
1625;SDS011;806;48.770;9.156;2023-09-12T10:00:32;3.75;;;3.30;;
1625;SDS011;806;48.770;9.156;2023-09-12T10:03:00;3.97;;;2.53;;
1625;SDS011;806;48.770;9.156;2023-09-12T10:05:30;4.03;;;2.10;;
1625;SDS011;806;48.770;9.156;2023-09-12T10:07:59;4.43;;;2.80;;
1625;SDS011;806;48.770;9.156;2023-09-12T10:10:27;3.47;;;2.67;;
1625;SDS011;806;48.770;9.156;2023-09-12T10:12:56;3.65;;;2.47;;
1625;SDS011;806;48.770;9.156;2023-09-12T10:15:26;3.42;;;2.20;;
1625;SDS011;806;48.770;9.156;2023-09-12T10:17:56;3.10;;;2.30;;
1625;SDS011;806;48.770;9.156;2023-09-12T10:20:28;7.75;;;2.90;;
1625;SDS011;806;48.770;9.156;2023-09-12T10:23:03;9.57;;;3.35;;
1625;SDS011;806;48.770;9.156;2023-09-12T10:25:36;3.38;;;2.75;;
1625;SDS011;806;48.770;9.156;2023-09-12T10:28:05;3.70;;;2.28;;
1625;SDS011;806;48.770;9.156;2023-09-12T10:30:35;3.83;;;3.42;;
1625;SDS011;806;48.770;9.156;2023-09-12T10:33:03;4.28;;;3.60;;
1625;SDS011;806;48.770;9.156;2023-09-12T10:35:32;3.20;;;2.20;;
1625;SDS011;806;48.770;9.156;2023-09-12T10:38:00;3.90;;;2.40;;
1625;SDS011;806;48.770;9.156;2023-09-12T10:40:30;8.52;;;3.63;;
1625;SDS011;806;48.770;9.156;2023-09-12T10:42:58;2.55;;;2.10;;
1625;SDS011;806;48.770;9.156;2023-09-12T10:45:28;4.28;;;2.65;;
1625;SDS011;806;48.770;9.156;2023-09-12T10:48:01;8.68;;;3.40;;
1625;SDS011;806;48.770;9.156;2023-09-12T10:50:28;4.35;;;3.03;;
1625;SDS011;806;48.770;9.156;2023-09-12T10:52:56;3.72;;;2.30;;
1625;SDS011;806;48.770;9.156;2023-09-12T10:55:34;3.00;;;2.55;;
1625;SDS011;806;48.770;9.156;2023-09-12T10:58:01;3.58;;;2.20;;
1625;SDS011;806;48.770;9.156;2023-09-12T11:00:30;5.40;;;2.63;;
1625;SDS011;806;48.770;9.156;2023-09-12T11:02:58;2.70;;;1.80;;
1625;SDS011;806;48.770;9.156;2023-09-12T11:05:37;4.88;;;2.70;;
1625;SDS011;806;48.770;9.156;2023-09-12T11:08:17;4.30;;;2.20;;
1625;SDS011;806;48.770;9.156;2023-09-12T11:10:44;4.07;;;2.40;;
1625;SDS011;806;48.770;9.156;2023-09-12T11:13:37;2.80;;;2.10;;
1625;SDS011;806;48.770;9.156;2023-09-12T11:16:10;4.10;;;3.28;;
1625;SDS011;806;48.770;9.156;2023-09-12T11:18:48;2.50;;;1.73;;
1625;SDS011;806;48.770;9.156;2023-09-12T11:21:40;4.72;;;2.70;;
1625;SDS011;806;48.770;9.156;2023-09-12T11:24:08;2.67;;;2.15;;
1625;SDS011;806;48.770;9.156;2023-09-12T11:29:26;3.90;;;2.47;;
1625;SDS011;806;48.770;9.156;2023-09-12T11:31:54;2.70;;;2.00;;
1625;SDS011;806;48.770;9.156;2023-09-12T11:34:27;5.03;;;2.20;;
1625;SDS011;806;48.770;9.156;2023-09-12T11:36:58;2.80;;;2.28;;
1625;SDS011;806;48.770;9.156;2023-09-12T11:39:28;3.35;;;2.30;;
1625;SDS011;806;48.770;9.156;2023-09-12T11:41:57;3.45;;;2.25;;
1625;SDS011;806;48.770;9.156;2023-09-12T11:44:25;8.32;;;2.67;;
1625;SDS011;806;48.770;9.156;2023-09-12T11:46:53;5.25;;;2.10;;
1625;SDS011;806;48.770;9.156;2023-09-12T11:49:20;3.80;;;2.60;;
1625;SDS011;806;48.770;9.156;2023-09-12T11:51:48;2.95;;;2.53;;
1625;SDS011;806;48.770;9.156;2023-09-12T11:54:19;3.10;;;1.90;;
1625;SDS011;806;48.770;9.156;2023-09-12T11:56:47;7.68;;;2.65;;
1625;SDS011;806;48.770;9.156;2023-09-12T11:59:21;3.10;;;2.00;;
1625;SDS011;806;48.770;9.156;2023-09-12T12:01:49;3.08;;;1.67;;
1625;SDS011;806;48.770;9.156;2023-09-12T12:04:16;4.20;;;2.00;;
1625;SDS011;806;48.770;9.156;2023-09-12T12:06:44;3.37;;;2.50;;
1625;SDS011;806;48.770;9.156;2023-09-12T12:09:11;4.00;;;2.03;;
1625;SDS011;806;48.770;9.156;2023-09-12T12:11:41;4.47;;;2.08;;
1625;SDS011;806;48.770;9.156;2023-09-12T12:14:09;3.88;;;1.80;;
1625;SDS011;806;48.770;9.156;2023-09-12T12:16:40;3.30;;;2.20;;
1625;SDS011;806;48.770;9.156;2023-09-12T12:19:08;3.30;;;2.17;;
1625;SDS011;806;48.770;9.156;2023-09-12T12:21:36;2.13;;;1.70;;
1625;SDS011;806;48.770;9.156;2023-09-12T12:24:04;3.60;;;1.90;;
1625;SDS011;806;48.770;9.156;2023-09-12T12:26:34;3.80;;;2.00;;
1625;SDS011;806;48.770;9.156;2023-09-12T12:29:02;1.80;;;1.60;;
1625;SDS011;806;48.770;9.156;2023-09-12T12:31:30;3.58;;;1.60;;
1625;SDS011;806;48.770;9.156;2023-09-12T12:33:57;2.63;;;1.80;;
1625;SDS011;806;48.770;9.156;2023-09-12T12:36:25;3.05;;;1.88;;
1625;SDS011;806;48.770;9.156;2023-09-12T12:38:53;2.90;;;1.67;;
1625;SDS011;806;48.770;9.156;2023-09-12T12:41:23;3.10;;;1.70;;
1625;SDS011;806;48.770;9.156;2023-09-12T12:43:52;3.60;;;2.00;;
1625;SDS011;806;48.770;9.156;2023-09-12T12:46:21;3.00;;;1.83;;
1625;SDS011;806;48.770;9.156;2023-09-12T12:48:48;3.55;;;1.95;;
1625;SDS011;806;48.770;9.156;2023-09-12T12:51:16;2.50;;;1.70;;
1625;SDS011;806;48.770;9.156;2023-09-12T12:53:45;1.87;;;1.60;;
1625;SDS011;806;48.770;9.156;2023-09-12T12:56:13;2.75;;;1.80;;
1625;SDS011;806;48.770;9.156;2023-09-12T12:58:48;3.42;;;1.60;;
1625;SDS011;806;48.770;9.156;2023-09-12T13:01:16;2.10;;;1.40;;
1625;SDS011;806;48.770;9.156;2023-09-12T13:03:45;2.20;;;1.80;;
1625;SDS011;806;48.770;9.156;2023-09-12T13:06:14;2.10;;;1.23;;
1625;SDS011;806;48.770;9.156;2023-09-12T13:08:42;2.78;;;1.73;;
1625;SDS011;806;48.770;9.156;2023-09-12T13:11:12;10.05;;;2.92;;
1625;SDS011;806;48.770;9.156;2023-09-12T13:13:40;2.65;;;1.67;;
1625;SDS011;806;48.770;9.156;2023-09-12T13:16:09;1.70;;;1.30;;
1625;SDS011;806;48.770;9.156;2023-09-12T13:18:37;2.83;;;1.30;;
1625;SDS011;806;48.770;9.156;2023-09-12T13:21:06;4.47;;;1.83;;
1625;SDS011;806;48.770;9.156;2023-09-12T13:23:33;2.47;;;1.60;;
1625;SDS011;806;48.770;9.156;2023-09-12T13:26:01;1.60;;;1.30;;
1625;SDS011;806;48.770;9.156;2023-09-12T13:28:29;2.60;;;1.40;;
1625;SDS011;806;48.770;9.156;2023-09-12T13:30:57;4.30;;;1.30;;
1625;SDS011;806;48.770;9.156;2023-09-12T13:33:24;3.90;;;1.73;;
1625;SDS011;806;48.770;9.156;2023-09-12T13:35:51;1.63;;;1.30;;
1625;SDS011;806;48.770;9.156;2023-09-12T13:38:20;3.10;;;1.40;;
1625;SDS011;806;48.770;9.156;2023-09-12T13:40:48;2.10;;;1.30;;
1625;SDS011;806;48.770;9.156;2023-09-12T13:43:15;2.10;;;1.40;;
1625;SDS011;806;48.770;9.156;2023-09-12T13:45:43;2.05;;;1.40;;
1625;SDS011;806;48.770;9.156;2023-09-12T13:48:10;2.40;;;1.60;;
1625;SDS011;806;48.770;9.156;2023-09-12T13:50:39;2.70;;;1.40;;
1625;SDS011;806;48.770;9.156;2023-09-12T13:53:08;2.88;;;1.50;;
1625;SDS011;806;48.770;9.156;2023-09-12T13:55:36;2.42;;;1.55;;
1625;SDS011;806;48.770;9.156;2023-09-12T13:58:04;4.10;;;1.70;;
1625;SDS011;806;48.770;9.156;2023-09-12T14:00:32;2.95;;;1.65;;
1625;SDS011;806;48.770;9.156;2023-09-12T14:03:00;2.67;;;1.90;;
1625;SDS011;806;48.770;9.156;2023-09-12T14:05:27;3.27;;;1.50;;
1625;SDS011;806;48.770;9.156;2023-09-12T14:07:55;3.90;;;1.50;;
1625;SDS011;806;48.770;9.156;2023-09-12T14:10:22;3.20;;;1.40;;
1625;SDS011;806;48.770;9.156;2023-09-12T14:12:51;1.80;;;1.60;;
1625;SDS011;806;48.770;9.156;2023-09-12T14:15:18;12.38;;;2.90;;
1625;SDS011;806;48.770;9.156;2023-09-12T14:17:45;3.75;;;1.70;;
1625;SDS011;806;48.770;9.156;2023-09-12T14:20:13;1.92;;;1.50;;
1625;SDS011;806;48.770;9.156;2023-09-12T14:22:41;3.40;;;1.60;;
1625;SDS011;806;48.770;9.156;2023-09-12T14:25:09;2.38;;;1.30;;
1625;SDS011;806;48.770;9.156;2023-09-12T14:27:40;3.33;;;1.40;;
1625;SDS011;806;48.770;9.156;2023-09-12T14:30:10;2.65;;;1.60;;
1625;SDS011;806;48.770;9.156;2023-09-12T14:32:39;2.00;;;1.48;;
1625;SDS011;806;48.770;9.156;2023-09-12T14:35:06;3.50;;;1.60;;
1625;SDS011;806;48.770;9.156;2023-09-12T14:37:34;3.80;;;1.90;;
1625;SDS011;806;48.770;9.156;2023-09-12T14:40:03;2.30;;;1.90;;
1625;SDS011;806;48.770;9.156;2023-09-12T14:42:31;3.40;;;1.50;;
1625;SDS011;806;48.770;9.156;2023-09-12T14:44:58;2.05;;;1.50;;
1625;SDS011;806;48.770;9.156;2023-09-12T14:47:27;1.90;;;1.47;;
1625;SDS011;806;48.770;9.156;2023-09-12T14:49:55;3.15;;;1.70;;
1625;SDS011;806;48.770;9.156;2023-09-12T14:52:22;2.65;;;1.35;;
1625;SDS011;806;48.770;9.156;2023-09-12T14:54:51;2.00;;;1.50;;
1625;SDS011;806;48.770;9.156;2023-09-12T14:57:19;2.30;;;1.63;;
1625;SDS011;806;48.770;9.156;2023-09-12T14:59:48;2.10;;;1.50;;
1625;SDS011;806;48.770;9.156;2023-09-12T15:02:16;2.13;;;1.63;;
1625;SDS011;806;48.770;9.156;2023-09-12T15:04:45;4.10;;;1.70;;
1625;SDS011;806;48.770;9.156;2023-09-12T15:07:12;1.70;;;1.50;;
1625;SDS011;806;48.770;9.156;2023-09-12T15:09:39;3.80;;;1.80;;
1625;SDS011;806;48.770;9.156;2023-09-12T15:12:07;3.58;;;1.85;;
1625;SDS011;806;48.770;9.156;2023-09-12T15:14:34;2.42;;;1.80;;
1625;SDS011;806;48.770;9.156;2023-09-12T15:17:02;2.50;;;1.70;;
1625;SDS011;806;48.770;9.156;2023-09-12T15:19:29;3.42;;;1.80;;
1625;SDS011;806;48.770;9.156;2023-09-12T15:21:58;2.80;;;1.70;;
1625;SDS011;806;48.770;9.156;2023-09-12T15:24:25;3.40;;;2.00;;
1625;SDS011;806;48.770;9.156;2023-09-12T15:26:52;3.17;;;1.58;;
1625;SDS011;806;48.770;9.156;2023-09-12T15:29:20;4.13;;;1.55;;
1625;SDS011;806;48.770;9.156;2023-09-12T15:31:47;2.00;;;1.70;;
1625;SDS011;806;48.770;9.156;2023-09-12T15:34:14;3.08;;;2.20;;
1625;SDS011;806;48.770;9.156;2023-09-12T15:36:43;2.92;;;1.80;;
1625;SDS011;806;48.770;9.156;2023-09-12T15:39:13;3.17;;;1.83;;
1625;SDS011;806;48.770;9.156;2023-09-12T15:41:40;4.90;;;1.50;;